Time;durP1;ratioP1;P1;durP2;ratioP2;P2;SDS_P1;SDS_P2;PMS_P1;PMS_P2;Temp;Humidity;BMP_temperature;BMP_pressure;BME280_temperature;BME280_humidity;BME280_pressure;Samples;Min_cycle;Max_cycle;Signal;HPM_P1;HPM_P2
2021/11/08 00:00:35;;;;;;;1.00;0.90;;;;;;;4.17;84.90;100909.88;6287201;28;20219;-73
2021/11/08 00:03:43;;;;;;;0.70;0.70;;;;;;;4.13;85.64;100924.75;6286281;28;20501;-73
2021/11/08 00:06:50;;;;;;;0.80;0.80;;;;;;;3.99;84.59;100938.97;6288869;28;20444;-73
2021/11/08 00:09:55;;;;;;;0.80;0.80;;;;;;;4.01;85.53;100942.31;6292085;28;20237;-73
2021/11/08 00:13:02;;;;;;;0.80;0.80;;;;;;;4.04;84.51;100939.28;6291080;28;20240;-73
2021/11/08 00:16:16;;;;;;;1.13;1.07;;;;;;;4.01;84.88;100947.72;6291078;28;20374;-73
2021/11/08 00:19:40;;;;;;;0.90;0.90;;;;;;;4.00;85.09;100954.16;6292343;28;20187;-73
2021/11/08 00:22:46;;;;;;;0.90;0.90;;;;;;;3.95;84.79;100953.81;6290913;28;20194;-73
2021/11/08 00:25:51;;;;;;;0.80;0.80;;;;;;;3.91;85.95;100964.09;6292195;28;20251;-73
2021/11/08 00:28:55;;;;;;;0.90;0.90;;;;;;;3.71;85.91;100963.63;6292111;28;20222;-73
2021/11/08 00:32:01;;;;;;;0.90;0.90;;;;;;;3.80;86.86;100973.41;6292002;28;20186;-73
2021/11/08 00:35:06;;;;;;;1.10;1.00;;;;;;;3.80;86.63;100973.41;6291730;28;20213;-73
2021/11/08 00:38:16;;;;;;;0.97;0.97;;;;;;;3.78;86.74;100970.03;6291676;28;20192;-73
2021/11/08 00:41:21;;;;;;;0.90;0.90;;;;;;;3.72;87.43;100984.19;6291921;28;20254;-73
2021/11/08 00:44:25;;;;;;;1.33;1.10;;;;;;;3.69;87.15;100987.25;6290894;28;20195;-73
2021/11/08 00:47:31;;;;;;;0.97;0.97;;;;;;;3.63;87.15;100996.00;6291831;28;20187;-73
2021/11/08 00:50:37;;;;;;;0.90;0.90;;;;;;;3.65;87.84;100996.69;6290502;28;20186;-73
2021/11/08 00:53:41;;;;;;;0.90;0.90;;;;;;;3.67;86.94;101000.03;6291244;28;20317;-73
2021/11/08 00:56:48;;;;;;;0.97;0.70;;;;;;;3.66;86.02;101009.16;6291191;28;20185;-73
2021/11/08 00:59:53;;;;;;;2.20;0.87;;;;;;;3.67;85.44;101021.63;6291184;28;20195;-73
2021/11/08 01:03:03;;;;;;;0.97;0.90;;;;;;;3.60;86.43;101031.41;6291418;28;20185;-73
2021/11/08 01:06:08;;;;;;;0.70;0.70;;;;;;;3.69;86.28;101024.19;6290587;28;20232;-73
2021/11/08 01:09:12;;;;;;;0.80;0.80;;;;;;;3.56;87.13;101040.88;6290342;28;20233;-73
2021/11/08 01:12:17;;;;;;;0.83;0.83;;;;;;;3.59;86.23;101040.53;6291095;28;20187;-73
2021/11/08 01:15:22;;;;;;;1.00;1.00;;;;;;;3.54;86.29;101042.91;6291009;28;20232;-73
2021/11/08 01:18:28;;;;;;;0.80;0.80;;;;;;;3.56;87.12;101048.97;6290513;28;20230;-73
2021/11/08 01:21:32;;;;;;;1.57;0.90;;;;;;;3.50;87.04;101046.91;6290057;28;20249;-73
2021/11/08 01:24:39;;;;;;;0.70;0.70;;;;;;;3.61;87.04;101049.31;6289628;28;20191;-73
2021/11/08 01:27:44;;;;;;;0.90;0.90;;;;;;;3.59;86.93;101062.13;6290862;28;20225;-73
2021/11/08 01:30:48;;;;;;;1.00;1.00;;;;;;;3.45;86.71;101065.47;6289424;28;20444;-73
2021/11/08 01:33:54;;;;;;;0.80;0.80;;;;;;;3.56;86.33;101073.25;6290271;28;20285;-73
2021/11/08 01:37:00;;;;;;;0.73;0.73;;;;;;;3.55;87.15;101076.94;6290671;28;20345;-74
2021/11/08 01:40:05;;;;;;;1.40;1.23;;;;;;;3.55;87.44;101085.03;6290332;28;20194;-74
2021/11/08 01:43:12;;;;;;;0.90;0.90;;;;;;;3.54;86.98;101083.38;6289228;28;20193;-73
2021/11/08 01:46:18;;;;;;;0.90;0.90;;;;;;;3.59;87.26;101089.09;6289999;28;20209;-73
2021/11/08 01:49:24;;;;;;;0.90;0.90;;;;;;;3.69;88.03;101089.78;6290478;28;20198;-73
2021/11/08 01:52:28;;;;;;;1.00;1.00;;;;;;;3.64;87.10;101102.94;6290375;28;20186;-73
2021/11/08 01:55:34;;;;;;;1.03;1.03;;;;;;;3.66;86.90;101095.50;6289762;28;20234;-74
2021/11/08 01:58:38;;;;;;;2.60;1.03;;;;;;;3.60;87.28;101101.56;6288872;28;20188;-73
2021/11/08 02:01:43;;;;;;;1.00;1.00;;;;;;;3.50;87.28;101106.25;6289400;28;20188;-73
2021/11/08 02:04:49;;;;;;;1.10;1.10;;;;;;;3.49;87.33;101114.53;6290172;28;20193;-73
2021/11/08 02:07:53;;;;;;;1.10;1.10;;;;;;;3.51;87.41;101124.16;6289767;28;20300;-73
2021/11/08 02:10:58;;;;;;;1.20;1.20;;;;;;;3.59;86.71;101121.47;6289934;28;20185;-73
2021/11/08 02:14:03;;;;;;;1.10;1.10;;;;;;;3.51;86.55;101129.53;6289848;28;20269;-73
2021/11/08 02:17:08;;;;;;;1.10;1.10;;;;;;;3.45;87.75;101135.59;6289611;28;20185;-73
2021/11/08 02:20:15;;;;;;;2.93;1.60;;;;;;;3.37;87.32;101149.03;6288486;28;20186;-73
2021/11/08 02:23:22;;;;;;;1.07;1.07;;;;;;;3.43;87.14;101143.00;6288237;28;20483;-73
2021/11/08 02:26:26;;;;;;;1.30;1.20;;;;;;;3.49;86.80;101158.50;6288799;28;20242;-73
2021/11/08 02:29:31;;;;;;;1.40;1.40;;;;;;;3.48;87.40;101164.94;6288762;28;20218;-73
2021/11/08 02:32:37;;;;;;;1.57;1.57;;;;;;;3.42;87.25;101173.66;6289549;28;20190;-73
2021/11/08 02:35:43;;;;;;;2.20;1.27;;;;;;;3.36;88.14;101173.50;6289264;28;20328;-73
2021/11/08 02:38:50;;;;;;;1.37;1.37;;;;;;;3.41;87.29;101185.50;6289466;28;20261;-73
2021/11/08 02:41:54;;;;;;;1.20;1.20;;;;;;;3.26;87.80;101197.91;6288950;28;20187;-74
2021/11/08 02:44:59;;;;;;;1.33;1.30;;;;;;;3.41;87.59;101198.97;6288231;28;20191;-73
2021/11/08 02:48:04;;;;;;;4.00;1.27;;;;;;;3.22;88.33;101203.75;6289231;28;20219;-74
2021/11/08 02:51:14;;;;;;;1.20;1.20;;;;;;;3.24;88.09;101207.97;6289135;28;20194;-75
2021/11/08 02:54:26;;;;;;;1.10;1.10;;;;;;;3.25;87.54;101219.59;6288089;28;20188;-74
2021/11/08 02:57:30;;;;;;;1.30;1.20;;;;;;;3.28;88.34;101203.13;6288989;28;20225;-73
2021/11/08 03:00:36;;;;;;;1.23;1.23;;;;;;;3.33;88.29;101223.22;6288696;28;20187;-73
2021/11/08 03:03:41;;;;;;;2.53;1.40;;;;;;;3.43;87.46;101223.06;6288792;28;20187;-73
2021/11/08 03:06:48;;;;;;;1.20;1.20;;;;;;;3.23;87.98;101217.09;6288031;28;20266;-73
2021/11/08 03:10:00;;;;;;;1.27;1.27;;;;;;;3.32;88.40;101226.91;6287456;28;20556;-73
2021/11/08 03:13:12;;;;;;;1.97;1.03;;;;;;;3.33;88.32;101233.16;6288142;28;20193;-73
2021/11/08 03:16:21;;;;;;;1.33;1.33;;;;;;;3.42;89.01;101234.84;6288083;28;20230;-73
2021/11/08 03:19:31;;;;;;;1.30;1.30;;;;;;;3.35;87.91;101242.75;6287080;28;20479;-73
2021/11/08 03:22:38;;;;;;;1.13;1.13;;;;;;;3.36;88.32;101238.22;6288236;28;20231;-73
2021/11/08 03:25:48;;;;;;;1.30;1.30;;;;;;;3.44;88.61;101257.97;6287135;28;20212;-73
2021/11/08 03:28:54;;;;;;;1.13;1.13;;;;;;;3.38;88.15;101274.81;6287958;28;20186;-73
2021/11/08 03:32:00;;;;;;;1.00;1.00;;;;;;;3.40;88.88;101267.41;6287618;28;20465;-73
2021/11/08 03:35:05;;;;;;;1.00;1.00;;;;;;;3.34;88.25;101261.81;6287141;28;20219;-73
2021/11/08 03:38:14;;;;;;;1.20;1.20;;;;;;;3.47;87.85;101268.44;6287097;28;20187;-73
2021/11/08 03:41:18;;;;;;;1.20;1.20;;;;;;;3.42;88.40;101270.78;6287372;28;20185;-74
2021/11/08 03:44:22;;;;;;;0.90;0.90;;;;;;;3.52;86.97;101293.09;6287241;28;20188;-73
2021/11/08 03:47:27;;;;;;;1.20;1.20;;;;;;;3.51;87.74;101280.63;6286469;28;20500;-73
2021/11/08 03:50:37;;;;;;;0.93;0.93;;;;;;;3.38;88.10;101284.75;6287863;28;20252;-73
2021/11/08 03:53:43;;;;;;;0.90;0.90;;;;;;;3.45;87.69;101286.66;6287981;28;20288;-73
2021/11/08 03:56:47;;;;;;;1.03;1.03;;;;;;;3.35;88.05;101290.47;6286992;28;20211;-73
2021/11/08 03:59:51;;;;;;;1.60;1.07;;;;;;;3.34;88.76;101307.66;6287396;28;20256;-73
2021/11/08 04:02:57;;;;;;;0.90;0.90;;;;;;;3.35;88.20;101296.72;6287320;28;20187;-73
2021/11/08 04:06:01;;;;;;;1.00;1.00;;;;;;;3.39;87.45;101308.84;6286900;28;20268;-74
2021/11/08 04:09:11;;;;;;;2.10;0.90;;;;;;;3.37;87.47;101294.69;6286519;28;20593;-73
2021/11/08 04:12:15;;;;;;;0.97;0.97;;;;;;;3.32;87.08;101307.81;6287682;28;20219;-73
2021/11/08 04:15:23;;;;;;;2.77;1.00;;;;;;;3.34;87.34;101319.28;6286147;28;20277;-73
2021/11/08 04:18:27;;;;;;;1.07;1.07;;;;;;;3.47;87.29;101317.00;6287360;28;20238;-73
2021/11/08 04:21:36;;;;;;;1.23;1.00;;;;;;;3.31;87.72;101327.72;6286808;28;20219;-73
2021/11/08 04:24:42;;;;;;;1.00;1.00;;;;;;;3.45;87.42;101340.59;6286787;28;20469;-73
2021/11/08 04:27:47;;;;;;;0.80;0.80;;;;;;;3.40;88.33;101348.31;6286650;28;20475;-74
2021/11/08 04:30:51;;;;;;;1.00;0.90;;;;;;;3.53;87.58;101353.28;6287104;28;20556;-73
2021/11/08 04:34:01;;;;;;;0.90;0.90;;;;;;;3.49;88.21;101355.44;6287603;28;20194;-73
2021/11/08 04:37:29;;;;;;;0.97;0.97;;;;;;;3.48;88.26;101352.91;6287565;28;20214;-74
2021/11/08 04:40:39;;;;;;;0.87;0.87;;;;;;;3.55;87.80;101362.91;6287159;28;20209;-73
2021/11/08 04:50:33;;;;;;;1.83;0.80;;;;;;;3.40;88.59;101374.44;6287150;28;20192;-75
2021/11/08 04:53:43;;;;;;;0.80;0.80;;;;;;;3.49;88.23;101385.13;6290968;28;20233;-73
2021/11/08 04:57:17;;;;;;;0.80;0.80;;;;;;;3.54;89.08;101390.94;6290625;28;20215;-73
2021/11/08 05:30:53;;;;;;;1.10;1.10;;;;;;;3.62;88.48;101439.53;6290394;28;20260;-74
2021/11/08 05:33:57;;;;;;;1.23;1.23;;;;;;;3.60;88.62;101446.06;6289695;28;20255;-73
2021/11/08 05:37:02;;;;;;;1.27;1.27;;;;;;;3.63;88.37;101452.03;6290236;28;20274;-73
2021/11/08 05:40:10;;;;;;;1.33;1.23;;;;;;;3.57;88.64;101449.94;6290586;28;20253;-73
2021/11/08 05:43:15;;;;;;;1.13;1.13;;;;;;;3.63;89.78;101462.81;6289188;28;20232;-74
2021/11/08 05:46:21;;;;;;;1.27;1.27;;;;;;;3.38;88.60;101479.81;6290037;28;20268;-73
2021/11/08 05:49:25;;;;;;;1.00;1.00;;;;;;;3.22;89.96;101476.94;6290318;28;20223;-73
2021/11/08 05:52:29;;;;;;;1.57;1.47;;;;;;;3.51;89.82;101474.88;6290022;28;20263;-73
2021/11/08 05:55:36;;;;;;;1.10;1.10;;;;;;;3.50;89.35;101494.75;6289745;28;20191;-74
2021/11/08 05:58:58;;;;;;;1.73;1.73;;;;;;;3.38;89.97;101490.59;6290104;28;20210;-73
2021/11/08 06:49:20;;;;;;;1.37;1.37;;;;;;;3.28;90.06;101595.03;6288470;28;20192;-73
2021/11/08 06:52:27;;;;;;;1.53;1.53;;;;;;;3.24;90.64;101604.38;6288187;28;20219;-72
2021/11/08 06:55:32;;;;;;;1.27;1.27;;;;;;;3.19;90.72;101604.00;6288236;28;20187;-73
2021/11/08 06:58:38;;;;;;;1.63;1.53;;;;;;;3.32;90.00;101609.03;6287097;28;20393;-73
2021/11/08 07:01:44;;;;;;;1.60;1.50;;;;;;;3.24;89.78;101617.88;6287353;28;20480;-73
2021/11/08 07:04:48;;;;;;;1.80;1.60;;;;;;;3.12;89.81;101632.56;6287010;28;20210;-73
2021/11/08 07:07:54;;;;;;;1.90;1.70;;;;;;;3.20;89.42;101638.06;6287575;28;20234;-73
2021/11/08 07:10:58;;;;;;;1.60;1.60;;;;;;;3.17;88.99;101632.97;6288014;28;20187;-73
2021/11/08 07:14:02;;;;;;;1.67;1.67;;;;;;;3.23;90.03;101637.78;6286482;28;20382;-73
2021/11/08 07:17:07;;;;;;;2.00;1.90;;;;;;;2.93;90.63;101652.38;6288069;28;20215;-75
2021/11/08 07:20:12;;;;;;;1.53;1.50;;;;;;;2.90;90.78;101647.28;6287974;28;20276;-75
2021/11/08 07:23:18;;;;;;;2.37;2.27;;;;;;;2.87;91.97;101658.38;6287787;28;20229;-74
2021/11/08 07:26:22;;;;;;;2.27;1.90;;;;;;;2.87;91.66;101655.69;6286543;28;20212;-74
2021/11/08 07:29:28;;;;;;;1.70;1.70;;;;;;;3.01;90.24;101670.50;6287863;28;20223;-74
2021/11/08 07:32:33;;;;;;;1.93;1.83;;;;;;;3.11;91.19;101676.69;6287893;28;20250;-75
2021/11/08 07:35:38;;;;;;;2.00;1.57;;;;;;;3.25;89.91;101678.91;6286409;28;20507;-74
2021/11/08 07:38:43;;;;;;;3.43;1.70;;;;;;;3.13;90.07;101685.50;6287752;28;20251;-73
2021/11/08 07:41:48;;;;;;;1.83;1.70;;;;;;;3.11;89.59;101687.47;6287325;28;20219;-73
2021/11/08 07:44:52;;;;;;;1.80;1.80;;;;;;;3.12;90.29;101705.38;6286728;28;20252;-72
2021/11/08 07:47:56;;;;;;;1.97;1.60;;;;;;;3.18;89.29;101704.78;6287317;28;20196;-73
2021/11/08 07:51:16;;;;;;;1.70;1.60;;;;;;;3.38;89.40;101706.41;6286577;28;20504;-73
2021/11/08 07:54:23;;;;;;;1.87;1.73;;;;;;;3.30;88.94;101709.00;6286271;28;20366;-74
2021/11/08 07:57:28;;;;;;;2.13;1.67;;;;;;;3.26;89.49;101721.09;6286038;28;20514;-73
2021/11/08 08:00:32;;;;;;;2.10;2.00;;;;;;;3.30;88.14;101727.00;6287148;28;20188;-73
2021/11/08 08:03:38;;;;;;;1.90;1.90;;;;;;;3.22;88.92;101733.16;6286899;28;20257;-73
2021/11/08 08:06:42;;;;;;;2.03;2.03;;;;;;;3.35;89.13;101755.25;6286724;28;20210;-73
2021/11/08 08:09:48;;;;;;;1.53;1.53;;;;;;;3.44;89.34;101743.56;6286115;28;20293;-73
2021/11/08 08:12:52;;;;;;;2.03;2.00;;;;;;;3.44;88.61;101758.91;6287042;28;20189;-73
2021/11/08 08:16:00;;;;;;;1.47;1.43;;;;;;;3.38;88.45;101757.66;6286981;28;20187;-73
2021/11/08 08:19:05;;;;;;;2.03;2.03;;;;;;;3.32;87.75;101777.13;6286903;28;20286;-74
2021/11/08 08:22:11;;;;;;;1.80;1.80;;;;;;;3.37;88.77;101774.81;6287294;28;20187;-73
2021/11/08 08:25:16;;;;;;;1.80;1.70;;;;;;;3.21;87.84;101790.75;6287136;28;20187;-72
2021/11/08 08:28:21;;;;;;;2.93;1.80;;;;;;;3.28;88.78;101802.69;6289519;28;20386;-73
2021/11/08 08:31:26;;;;;;;1.70;1.70;;;;;;;3.34;87.42;101796.69;6291874;28;20195;-73
2021/11/08 08:34:30;;;;;;;1.73;1.63;;;;;;;3.31;88.05;101797.00;6291853;28;20218;-73
2021/11/08 08:37:34;;;;;;;1.60;1.60;;;;;;;3.45;88.36;101820.81;6291182;28;20261;-73
2021/11/08 08:40:40;;;;;;;2.50;1.80;;;;;;;3.45;88.06;101820.81;6290284;28;20185;-73
2021/11/08 08:43:45;;;;;;;1.87;1.77;;;;;;;3.48;87.25;101820.50;6291154;28;20218;-73
2021/11/08 08:46:50;;;;;;;1.40;1.40;;;;;;;3.53;87.08;101831.72;6291524;28;20186;-73
2021/11/08 08:49:57;;;;;;;2.10;2.00;;;;;;;3.53;87.84;101837.09;6291435;28;20196;-73
2021/11/08 08:53:04;;;;;;;1.80;1.80;;;;;;;3.46;87.40;101841.41;6290294;28;20356;-73
2021/11/08 08:56:13;;;;;;;1.87;1.77;;;;;;;3.46;86.68;101849.50;6291440;28;20188;-74
2021/11/08 08:59:18;;;;;;;1.50;1.50;;;;;;;3.58;87.15;101856.41;6291406;28;20257;-74
2021/11/08 09:02:23;;;;;;;5.10;2.20;;;;;;;3.54;87.35;101871.19;6290043;28;20354;-73
2021/11/08 09:05:27;;;;;;;1.60;1.60;;;;;;;3.44;88.09;101867.66;6290704;28;20253;-73
2021/11/08 09:08:32;;;;;;;2.10;1.77;;;;;;;3.56;87.12;101874.59;6289724;28;20490;-73
2021/11/08 09:11:38;;;;;;;2.20;2.10;;;;;;;3.67;86.92;101874.41;6289769;28;20196;-73
2021/11/08 09:14:42;;;;;;;2.10;2.00;;;;;;;3.52;85.44;101881.25;6291024;28;20188;-73
2021/11/08 09:17:46;;;;;;;2.00;1.90;;;;;;;3.39;87.13;101886.13;6289458;28;20382;-72
2021/11/08 09:20:50;;;;;;;2.83;1.90;;;;;;;3.46;85.12;101892.66;6289751;28;20216;-73
2021/11/08 09:23:56;;;;;;;2.13;2.03;;;;;;;3.54;86.23;101894.63;6290386;28;20266;-73
2021/11/08 09:27:03;;;;;;;2.37;2.17;;;;;;;3.66;86.54;101905.09;6290769;28;20251;-73
2021/11/08 09:30:10;;;;;;;4.53;2.10;;;;;;;3.63;86.09;101915.34;6290597;28;20194;-73
2021/11/08 09:33:14;;;;;;;2.20;2.20;;;;;;;3.55;86.40;101907.97;6289374;28;20525;-72
2021/11/08 09:36:24;;;;;;;2.20;2.10;;;;;;;3.57;86.31;101927.56;6289196;28;20353;-73
2021/11/08 09:39:29;;;;;;;2.30;2.10;;;;;;;3.65;85.53;101919.59;6289970;28;20215;-73
2021/11/08 09:42:37;;;;;;;2.27;2.17;;;;;;;3.52;85.92;101929.84;6289117;28;20396;-73
2021/11/08 09:45:44;;;;;;;2.23;2.20;;;;;;;3.67;86.63;101928.38;6290252;28;20281;-73
2021/11/08 09:48:48;;;;;;;2.20;2.10;;;;;;;3.73;84.83;101937.75;6288971;28;20510;-73
2021/11/08 09:51:53;;;;;;;1.80;1.80;;;;;;;3.60;85.91;101932.66;6288919;28;20353;-73
2021/11/08 09:54:58;;;;;;;2.13;2.13;;;;;;;3.74;85.23;101928.66;6289171;28;20210;-73
2021/11/08 09:58:06;;;;;;;2.13;2.03;;;;;;;3.85;84.75;101938.44;6289527;28;20191;-73
2021/11/08 10:01:14;;;;;;;2.30;2.10;;;;;;;3.84;84.36;101950.22;6289693;28;20191;-73
2021/11/08 10:04:19;;;;;;;2.13;2.03;;;;;;;3.77;85.18;101950.78;6289889;28;20252;-74
2021/11/08 10:07:23;;;;;;;2.10;2.10;;;;;;;3.92;85.64;101947.66;6289541;28;20238;-73
2021/11/08 10:10:29;;;;;;;2.40;2.20;;;;;;;3.80;84.78;101961.31;6289616;28;20191;-73
2021/11/08 10:13:35;;;;;;;2.40;2.20;;;;;;;3.83;84.41;101964.75;6289685;28;20192;-73
2021/11/08 10:16:42;;;;;;;2.07;1.97;;;;;;;3.86;84.63;101969.81;6289680;28;20191;-73
2021/11/08 10:19:46;;;;;;;1.90;1.90;;;;;;;3.95;85.60;101974.34;6289028;28;20216;-74
2021/11/08 10:22:51;;;;;;;2.10;2.00;;;;;;;4.01;84.91;101979.16;6288070;28;20542;-74
2021/11/08 10:25:56;;;;;;;2.20;1.83;;;;;;;4.05;84.03;101975.19;6289148;28;20286;-74
2021/11/08 10:29:05;;;;;;;1.90;1.90;;;;;;;4.05;83.26;101967.94;6288014;28;20193;-74
2021/11/08 10:32:10;;;;;;;1.73;1.73;;;;;;;4.23;82.33;101965.31;6289303;28;20185;-74
2021/11/08 10:35:15;;;;;;;6.67;2.07;;;;;;;4.24;80.99;101985.91;6287807;28;20383;-73
2021/11/08 10:38:22;;;;;;;2.07;1.97;;;;;;;4.12;81.57;101987.09;6287654;28;20200;-73
2021/11/08 10:41:30;;;;;;;3.30;1.60;;;;;;;4.12;81.15;101989.78;6288840;28;20222;-73
2021/11/08 10:44:36;;;;;;;2.50;1.70;;;;;;;4.21;80.43;101988.91;6287590;28;20383;-74
2021/11/08 10:47:40;;;;;;;3.97;1.70;;;;;;;4.27;81.25;101985.59;6288532;28;20256;-74
2021/11/08 10:50:44;;;;;;;2.93;1.60;;;;;;;4.18;79.04;101997.31;6286708;28;20487;-74
2021/11/08 10:53:52;;;;;;;1.40;1.40;;;;;;;4.31;78.87;102003.25;6287284;28;20382;-74
2021/11/08 10:56:58;;;;;;;1.40;1.40;;;;;;;4.28;78.65;102015.19;6287764;28;20496;-73
2021/11/08 11:00:14;;;;;;;1.40;1.40;;;;;;;4.29;78.11;102013.31;6288563;28;20208;-74
2021/11/08 11:03:22;;;;;;;1.90;1.80;;;;;;;4.28;77.85;102008.94;6288205;28;20195;-73
2021/11/08 11:06:39;;;;;;;2.00;1.63;;;;;;;4.15;78.83;102019.22;6286978;28;20507;-73
2021/11/08 11:09:44;;;;;;;1.47;1.40;;;;;;;4.22;78.34;102025.72;6288128;28;20338;-74
2021/11/08 11:12:50;;;;;;;1.70;1.60;;;;;;;4.25;79.05;102030.84;6288145;28;20264;-73
2021/11/08 11:16:01;;;;;;;2.60;1.57;;;;;;;4.21;79.75;102029.44;6288063;28;20193;-74
2021/11/08 11:19:08;;;;;;;3.80;1.37;;;;;;;4.25;79.63;102030.84;6288065;28;20185;-75
2021/11/08 11:22:17;;;;;;;1.63;1.10;;;;;;;4.20;79.40;102043.94;6287153;28;20191;-74
2021/11/08 11:25:22;;;;;;;1.93;1.20;;;;;;;4.25;80.35;102037.09;6288053;28;20195;-74
2021/11/08 11:28:31;;;;;;;1.30;1.30;;;;;;;4.13;80.19;102054.50;6287570;28;20196;-73
2021/11/08 11:31:38;;;;;;;1.90;1.20;;;;;;;4.21;80.63;102056.44;6286749;28;20189;-73
2021/11/08 11:34:42;;;;;;;1.80;1.57;;;;;;;4.19;80.96;102058.44;6288020;28;20224;-74
2021/11/08 11:37:56;;;;;;;1.47;1.47;;;;;;;4.26;80.24;102075.78;6286441;28;20373;-73
2021/11/08 11:41:03;;;;;;;2.70;1.43;;;;;;;4.16;80.55;102069.53;6286228;28;20580;-73
2021/11/08 11:44:10;;;;;;;1.30;1.30;;;;;;;4.07;79.99;102070.41;6286826;28;20210;-72
2021/11/08 11:47:18;;;;;;;1.30;1.30;;;;;;;4.04;80.01;102071.53;6287604;28;20185;-73
2021/11/08 11:50:22;;;;;;;1.73;1.50;;;;;;;4.21;80.00;102067.25;6286738;28;20229;-73
2021/11/08 11:53:27;;;;;;;1.73;1.63;;;;;;;4.17;80.37;102071.22;6287478;28;20285;-73
2021/11/08 11:56:33;;;;;;;1.47;1.47;;;;;;;4.22;80.01;102072.50;6286370;28;20208;-73
2021/11/08 11:59:39;;;;;;;1.60;1.50;;;;;;;4.06;80.61;102079.50;6286944;28;20217;-73
2021/11/08 12:02:45;;;;;;;2.47;1.40;;;;;;;4.16;80.54;102069.53;6293910;28;20220;-73
2021/11/08 12:05:54;;;;;;;1.57;1.47;;;;;;;4.29;79.80;102070.91;6294453;28;20371;-74
2021/11/08 12:09:01;;;;;;;1.80;1.70;;;;;;;4.23;79.82;102086.88;6294299;28;20471;-73
2021/11/08 12:12:07;;;;;;;1.70;1.50;;;;;;;4.24;79.09;102093.97;6294333;28;20196;-73
2021/11/08 12:15:16;;;;;;;2.83;1.40;;;;;;;4.21;78.46;102105.09;6295547;28;20248;-74
2021/11/08 12:18:23;;;;;;;1.27;1.17;;;;;;;4.25;79.85;102114.59;6294150;28;20279;-73
2021/11/08 12:21:30;;;;;;;3.70;1.60;;;;;;;4.22;79.86;102117.56;6294315;28;20261;-74
2021/11/08 12:24:34;;;;;;;5.30;1.50;;;;;;;4.19;78.21;102123.25;6295508;28;20187;-74
2021/11/08 12:27:41;;;;;;;1.97;1.70;;;;;;;4.18;79.63;102121.56;6294534;28;20187;-73
2021/11/08 12:30:49;;;;;;;1.57;1.53;;;;;;;4.31;79.34;102138.34;6294245;28;20243;-74
2021/11/08 12:34:03;;;;;;;3.90;1.43;;;;;;;4.26;78.61;102135.22;6295252;28;20262;-75
2021/11/08 12:37:08;;;;;;;1.20;1.20;;;;;;;4.12;79.03;102149.16;6294492;28;20191;-73
2021/11/08 12:40:13;;;;;;;1.37;1.33;;;;;;;4.17;78.67;102153.13;6294319;28;20215;-73
2021/11/08 12:43:24;;;;;;;1.53;1.40;;;;;;;4.19;79.13;102161.06;6295131;28;20222;-73
2021/11/08 12:46:36;;;;;;;2.50;1.37;;;;;;;4.25;78.46;102160.50;6294981;28;20186;-73
2021/11/08 12:49:49;;;;;;;2.13;1.47;;;;;;;4.31;78.38;102166.19;6293939;28;20275;-73
2021/11/08 12:52:53;;;;;;;4.53;1.60;;;;;;;4.38;78.81;102166.47;6294047;28;20286;-74
2021/11/08 12:56:00;;;;;;;1.40;1.30;;;;;;;4.32;78.03;102170.59;6294018;28;20432;-73
2021/11/08 12:59:14;;;;;;;1.70;1.70;;;;;;;4.10;77.70;102189.81;6293867;28;20219;-73
2021/11/08 13:02:24;;;;;;;4.80;1.50;;;;;;;4.15;78.61;102183.97;6294793;28;20212;-73
2021/11/08 13:05:33;;;;;;;1.50;1.40;;;;;;;4.12;78.34;102186.97;6295170;28;20203;-73
2021/11/08 13:08:37;;;;;;;1.80;1.47;;;;;;;4.09;78.00;102196.22;6294680;28;20233;-73
2021/11/08 13:11:46;;;;;;;1.40;1.40;;;;;;;4.09;79.06;102206.16;6293261;28;20198;-73
2021/11/08 13:15:02;;;;;;;1.97;1.53;;;;;;;3.97;78.13;102204.59;6289212;28;20188;-74
2021/11/08 13:18:10;;;;;;;1.70;1.60;;;;;;;3.90;78.54;102215.13;6289744;28;20185;-73
2021/11/08 13:21:24;;;;;;;1.40;1.40;;;;;;;3.89;78.33;102220.63;6290627;28;20218;-74
2021/11/08 13:24:30;;;;;;;1.40;1.40;;;;;;;3.94;78.83;102215.66;6290945;28;20231;-75
2021/11/08 13:27:35;;;;;;;1.87;1.77;;;;;;;3.96;78.36;102219.06;6290694;28;20195;-73
2021/11/08 13:30:41;;;;;;;1.83;1.73;;;;;;;3.94;78.76;102231.88;6289412;28;20213;-73
2021/11/08 13:33:48;;;;;;;1.50;1.50;;;;;;;3.92;78.24;102229.31;6290705;28;20194;-74
2021/11/08 13:36:54;;;;;;;2.60;1.60;;;;;;;3.79;79.04;102224.19;6289969;28;20192;-73
2021/11/08 13:40:01;;;;;;;1.53;1.53;;;;;;;3.90;79.39;102241.25;6289038;28;20382;-73
2021/11/08 13:43:08;;;;;;;1.77;1.60;;;;;;;3.84;78.88;102236.41;6290398;28;20215;-73
2021/11/08 13:46:15;;;;;;;1.80;1.67;;;;;;;4.02;77.76;102240.13;6290437;28;20276;-73
2021/11/08 13:49:22;;;;;;;1.63;1.60;;;;;;;4.07;78.79;102251.38;6290075;28;20187;-74
2021/11/08 13:52:27;;;;;;;3.23;1.93;;;;;;;4.01;78.49;102260.00;6288918;28;20485;-74
2021/11/08 13:55:32;;;;;;;1.53;1.50;;;;;;;3.94;78.24;102253.47;6288659;28;20185;-73
2021/11/08 13:58:37;;;;;;;1.70;1.60;;;;;;;3.98;78.29;102265.72;6289963;28;20247;-73
2021/11/08 14:01:44;;;;;;;1.67;1.63;;;;;;;3.93;78.56;102273.38;6288572;28;20211;-73
2021/11/08 14:04:51;;;;;;;2.77;1.90;;;;;;;3.94;78.56;102275.06;6289308;28;20186;-72
2021/11/08 14:08:02;;;;;;;2.10;1.93;;;;;;;3.98;78.18;102277.34;6289570;28;20224;-72
2021/11/08 14:11:07;;;;;;;4.27;2.10;;;;;;;3.97;78.66;102281.06;6288861;28;20212;-73
2021/11/08 14:14:13;;;;;;;7.37;1.93;;;;;;;3.96;78.23;102279.34;6289855;28;20187;-72
2021/11/08 14:17:20;;;;;;;2.40;1.80;;;;;;;3.62;79.60;102286.94;6288404;28;20419;-73
2021/11/08 14:20:24;;;;;;;1.60;1.60;;;;;;;3.65;80.19;102286.66;6289543;28;20194;-73
2021/11/08 14:23:30;;;;;;;2.37;1.80;;;;;;;3.68;79.53;102286.38;6288574;28;20214;-73
2021/11/08 14:26:37;;;;;;;4.17;1.87;;;;;;;3.54;81.02;102289.47;6288831;28;20279;-73
2021/11/08 14:29:42;;;;;;;1.80;1.70;;;;;;;3.66;80.05;102293.78;6287910;28;20474;-73
2021/11/08 14:32:48;;;;;;;3.50;1.70;;;;;;;3.55;81.14;102296.56;6289239;28;20191;-73
2021/11/08 14:35:52;;;;;;;2.00;1.90;;;;;;;3.43;82.55;102307.59;6289115;28;20218;-73
2021/11/08 14:39:01;;;;;;;2.43;1.87;;;;;;;3.32;82.36;102305.84;6288343;28;20374;-74
2021/11/08 14:42:05;;;;;;;2.40;1.60;;;;;;;3.38;82.33;102305.31;6287684;28;20213;-74
2021/11/08 14:45:18;;;;;;;2.67;1.43;;;;;;;3.21;81.77;102308.59;6288157;28;20249;-73
2021/11/08 14:48:23;;;;;;;4.47;1.63;;;;;;;3.46;81.67;102318.97;6287547;28;20495;-73
2021/11/08 14:51:28;;;;;;;2.00;1.90;;;;;;;3.15;82.90;102320.81;6287289;28;20535;-73
2021/11/08 14:54:36;;;;;;;1.83;1.73;;;;;;;3.19;82.86;102321.38;6288330;28;20185;-73
2021/11/08 14:57:40;;;;;;;1.57;1.57;;;;;;;3.22;82.77;102315.72;6288686;28;20194;-73
2021/11/08 15:00:47;;;;;;;2.47;1.90;;;;;;;3.25;82.54;102320.84;6288573;28;20259;-73
2021/11/08 15:04:01;;;;;;;4.30;1.77;;;;;;;3.26;82.50;102317.19;6287426;28;20212;-73
2021/11/08 15:07:06;;;;;;;5.83;1.87;;;;;;;3.28;82.94;102320.59;6287293;28;20203;-74
2021/11/08 15:10:15;;;;;;;5.67;2.17;;;;;;;3.41;82.49;102329.31;6286888;28;20360;-73
2021/11/08 15:13:21;;;;;;;1.70;1.70;;;;;;;3.46;82.70;102335.19;6288195;28;20197;-73
2021/11/08 15:16:25;;;;;;;3.27;1.90;;;;;;;3.43;82.68;102340.84;6288140;28;20273;-74
2021/11/08 15:19:30;;;;;;;4.23;2.23;;;;;;;3.25;83.06;102337.03;6288305;28;20187;-73
2021/11/08 15:22:35;;;;;;;1.80;1.80;;;;;;;3.26;83.48;102344.16;6286692;28;20214;-73
2021/11/08 15:25:44;;;;;;;2.17;1.90;;;;;;;3.28;82.84;102342.19;6287730;28;20263;-73
2021/11/08 15:28:51;;;;;;;3.70;1.60;;;;;;;3.19;83.92;102356.44;6286826;28;20412;-74
2021/11/08 15:31:58;;;;;;;4.83;1.90;;;;;;;3.15;84.05;102363.09;6287865;28;20207;-73
2021/11/08 15:35:13;;;;;;;2.50;2.20;;;;;;;2.96;84.80;102369.22;6285988;28;20194;-72
2021/11/08 15:38:19;;;;;;;3.13;2.20;;;;;;;3.09;83.98;102377.09;6287791;28;20187;-72
2021/11/08 15:41:27;;;;;;;2.27;2.07;;;;;;;3.30;83.68;102377.97;6286385;28;20470;-73
2021/11/08 15:44:31;;;;;;;2.83;1.90;;;;;;;3.26;83.69;102371.13;6286915;28;20215;-73
2021/11/08 15:47:38;;;;;;;2.30;2.10;;;;;;;3.26;83.46;102375.66;6287779;28;20265;-72
2021/11/08 15:50:42;;;;;;;2.40;2.20;;;;;;;3.21;84.29;102373.34;6287502;28;20191;-73
2021/11/08 15:53:46;;;;;;;6.83;2.57;;;;;;;3.33;83.70;102383.09;6287274;28;20197;-73
2021/11/08 15:56:55;;;;;;;2.10;1.90;;;;;;;3.15;83.38;102379.28;6287615;28;20301;-74
2021/11/08 15:59:59;;;;;;;5.90;2.40;;;;;;;3.23;83.97;102387.59;6287404;28;20210;-72
2021/11/08 16:03:05;;;;;;;3.77;2.33;;;;;;;3.27;83.90;102383.63;6286583;28;20215;-73